Time;durP1;ratioP1;P1;durP2;ratioP2;P2;SDS_P1;SDS_P2;PMS_P1;PMS_P2;Temp;Humidity;BMP_temperature;BMP_pressure;BME280_temperature;BME280_humidity;BME280_pressure;Samples;Min_cycle;Max_cycle;Signal;HPM_P1;HPM_P2
2022/05/24 00:01:22;;;;;;;7.07;4.13;;;19.50;80.50;;;19.94;54.13;94474.09;5048116;28;20451;-58
2022/05/24 00:03:49;;;;;;;5.43;4.40;;;19.50;80.50;;;19.92;53.91;94470.78;5046651;28;20544;-59
2022/05/24 00:06:17;;;;;;;4.63;3.30;;;19.50;80.00;;;19.92;54.25;94475.31;5045953;28;21156;-56
2022/05/24 00:08:44;;;;;;;11.47;4.33;;;19.50;80.50;;;19.87;54.01;94470.59;5057410;28;20504;-58
2022/05/24 00:11:12;;;;;;;16.87;4.20;;;19.50;79.50;;;19.76;53.27;94463.22;5051865;28;20483;-60
2022/05/24 00:13:40;;;;;;;5.60;3.33;;;19.40;78.20;;;19.62;54.15;94463.22;5046246;28;20541;-54
2022/05/24 00:16:08;;;;;;;4.80;3.90;;;19.30;78.80;;;19.55;54.43;94465.06;5045558;28;20475;-54
2022/05/24 00:18:35;;;;;;;9.07;4.30;;;19.20;79.60;;;19.50;54.90;94467.50;5047262;28;20456;-58
2022/05/24 00:21:05;;;;;;;6.13;3.13;;;19.10;80.40;;;19.48;54.37;94469.56;5055536;28;21529;-58
2022/05/24 00:23:33;;;;;;;11.90;4.30;;;19.10;80.70;;;19.45;54.80;94476.13;5053068;28;20927;-56
2022/05/24 00:26:02;;;;;;;5.00;3.50;;;19.10;80.90;;;19.44;54.48;94479.00;5052563;28;21070;-59
2022/05/24 00:28:30;;;;;;;11.60;3.60;;;19.00;80.80;;;19.41;54.62;94484.75;5050936;28;20460;-55
2022/05/24 00:30:59;;;;;;;4.93;2.97;;;19.00;80.90;;;19.39;55.34;94476.94;5047341;28;20479;-56
2022/05/24 00:33:26;;;;;;;3.17;2.87;;;19.00;81.50;;;19.37;55.36;94478.19;5047558;28;20480;-57
2022/05/24 00:35:54;;;;;;;3.87;3.50;;;19.00;81.70;;;19.34;55.58;94477.56;5054415;28;20579;-59
2022/05/24 00:38:26;;;;;;;4.13;3.80;;;18.90;81.80;;;19.32;55.13;94481.47;5047598;28;20472;-54
2022/05/24 00:41:04;;;;;;;3.53;3.23;;;18.90;82.20;;;19.29;55.78;94480.03;5051936;28;21041;-56
2022/05/24 00:43:34;;;;;;;4.80;3.63;;;18.90;82.90;;;19.29;55.91;94482.69;5046033;28;20517;-58
2022/05/24 00:46:04;;;;;;;5.47;3.97;;;18.90;82.50;;;19.25;55.27;94484.09;5051957;28;20494;-54
2022/05/24 00:48:37;;;;;;;5.00;3.40;;;18.90;82.60;;;19.24;55.63;94478.97;5055892;28;20466;-55
2022/05/24 00:51:04;;;;;;;4.30;3.90;;;18.90;83.10;;;19.24;55.57;94486.97;5048755;28;20478;-58
2022/05/24 00:53:35;;;;;;;6.13;3.47;;;18.90;83.30;;;19.26;55.92;94493.75;5049982;28;20964;-55
2022/05/24 00:56:07;;;;;;;8.50;4.10;;;18.90;83.60;;;19.26;55.89;94498.28;5043876;28;20479;-57
2022/05/24 00:58:39;;;;;;;3.10;2.90;;;18.90;83.50;;;19.26;55.87;94498.28;5054615;28;20451;-56
2022/05/24 01:01:24;;;;;;;8.63;2.40;;;18.90;83.10;;;19.28;55.27;94501.56;5052422;28;20470;-55
2022/05/24 01:03:51;;;;;;;8.63;2.97;;;18.90;81.70;;;19.22;54.26;94491.69;5053279;28;20500;-55
2022/05/24 01:06:18;;;;;;;12.70;3.50;;;18.80;79.80;;;19.17;53.98;94494.97;5049927;28;20459;-54
2022/05/24 01:08:46;;;;;;;5.67;3.20;;;18.80;79.80;;;19.14;53.91;94495.38;5049611;28;20546;-58
2022/05/24 01:11:13;;;;;;;3.00;2.80;;;18.80;79.40;;;19.10;54.04;94502.13;5058559;28;21011;-55
2022/05/24 01:13:41;;;;;;;5.53;2.17;;;18.80;78.60;;;19.06;53.46;94499.06;5061576;28;20494;-56
2022/05/24 01:16:10;;;;;;;8.07;2.30;;;18.70;78.40;;;19.01;53.66;94496.19;5056882;28;20482;-55
2022/05/24 01:18:37;;;;;;;4.33;2.67;;;18.70;78.40;;;18.97;53.38;94495.75;5053757;28;20456;-57
2022/05/24 01:21:06;;;;;;;3.50;2.57;;;18.60;78.00;;;18.96;53.42;94503.94;5053968;28;20948;-57
2022/05/24 01:23:53;;;;;;;3.23;2.17;;;18.60;78.30;;;18.94;53.77;94498.81;5052012;28;20955;-57
2022/05/24 01:26:25;;;;;;;2.27;2.17;;;18.60;78.30;;;18.93;53.35;94489.19;5053192;28;21120;-54
2022/05/24 01:28:56;;;;;;;5.10;1.97;;;18.60;77.70;;;18.90;53.14;94486.94;5053897;28;20513;-56
2022/05/24 01:31:23;;;;;;;6.47;2.67;;;18.60;77.50;;;18.86;52.85;94483.00;5050512;28;20455;-55
2022/05/24 01:36:39;;;;;;;2.97;2.03;;;18.50;77.40;;;18.78;53.29;94481.31;5049699;28;20447;-56
2022/05/24 01:39:09;;;;;;;2.50;2.40;;;18.40;77.50;;;18.75;53.50;94481.72;5053844;28;20462;-57
2022/05/24 01:41:45;;;;;;;2.93;2.10;;;18.40;77.40;;;18.71;52.98;94487.63;5038964;28;20464;-58
2022/05/24 01:44:15;;;;;;;2.37;2.23;;;18.40;77.50;;;18.69;53.19;94487.03;5052122;28;20472;-55
2022/05/24 01:46:44;;;;;;;7.20;2.40;;;18.30;78.00;;;18.65;53.54;94486.59;5049502;28;20455;-56
2022/05/24 01:49:14;;;;;;;10.07;2.70;;;18.30;78.00;;;18.63;53.29;94478.78;5050053;28;20458;-56
2022/05/24 01:51:45;;;;;;;2.87;2.67;;;18.30;78.00;;;18.63;53.86;94484.13;5046300;28;20998;-57
2022/05/24 01:54:13;;;;;;;6.67;2.20;;;18.30;78.00;;;18.63;53.64;94488.63;5054225;28;21086;-57
2022/05/24 01:56:45;;;;;;;3.07;2.43;;;18.30;78.60;;;18.62;54.05;94482.50;5052607;28;20469;-56
2022/05/24 01:59:14;;;;;;;3.67;2.77;;;18.30;78.60;;;18.63;53.66;94494.78;5043266;28;20484;-57
2022/05/24 02:01:46;;;;;;;3.93;2.67;;;18.30;79.20;;;18.66;54.39;94498.91;5046248;28;20464;-55
2022/05/24 02:04:13;;;;;;;3.30;3.00;;;18.30;79.40;;;18.67;53.84;94497.88;5057901;28;20476;-54
2022/05/24 02:06:41;;;;;;;4.47;2.50;;;18.30;79.20;;;18.66;54.06;94496.22;5054014;28;20879;-55
2022/05/24 02:09:09;;;;;;;8.50;2.70;;;18.30;79.00;;;18.64;53.76;94506.28;5050541;28;21120;-55
2022/05/24 02:11:36;;;;;;;4.40;3.20;;;18.30;79.20;;;18.60;54.34;94505.00;5046005;28;20938;-57
2022/05/24 02:14:14;;;;;;;4.40;2.50;;;18.30;79.70;;;18.58;54.93;94507.88;5049614;28;20500;-55
2022/05/24 02:16:44;;;;;;;2.73;2.10;;;18.20;80.00;;;18.61;55.03;94506.66;5054943;28;20461;-56
2022/05/24 02:19:12;;;;;;;6.10;2.97;;;18.20;81.10;;;18.63;55.17;94504.63;5052710;28;20458;-55
2022/05/24 02:21:39;;;;;;;3.43;3.13;;;18.30;81.10;;;18.67;55.16;94486.38;5050878;28;20460;-55
2022/05/24 02:24:16;;;;;;;8.10;2.47;;;18.30;81.20;;;18.70;55.31;94478.84;5049991;28;20460;-55
2022/05/24 02:26:43;;;;;;;5.57;2.80;;;18.30;81.00;;;18.69;54.65;94468.38;5046476;28;20478;-58
2022/05/24 02:29:11;;;;;;;7.43;2.60;;;18.30;80.80;;;18.65;54.88;94454.63;5054800;28;20967;-59
2022/05/24 02:31:39;;;;;;;5.63;2.53;;;18.30;80.50;;;18.61;54.87;94472.84;5051737;28;20471;-54
2022/05/24 02:34:07;;;;;;;6.70;3.07;;;18.30;81.10;;;18.58;55.06;94481.25;5049269;28;20549;-55
2022/05/24 02:36:34;;;;;;;5.40;3.20;;;18.30;81.60;;;18.57;55.65;94506.22;5047449;28;20464;-58
2022/05/24 02:39:01;;;;;;;6.30;2.50;;;18.20;81.70;;;18.59;55.71;94512.19;5045062;28;20495;-57
2022/05/24 02:41:31;;;;;;;4.83;2.90;;;18.30;82.60;;;18.61;56.11;94512.00;5059756;28;20463;-57
2022/05/24 02:44:03;;;;;;;7.50;2.80;;;18.20;83.00;;;18.63;55.82;94509.94;5052734;28;20975;-57
2022/05/24 02:46:32;;;;;;;2.97;2.77;;;18.30;83.60;;;18.67;55.73;94524.53;5052663;28;20976;-57
2022/05/24 02:49:00;;;;;;;5.80;2.87;;;18.30;83.00;;;18.68;55.52;94517.34;5048811;28;20470;-58
2022/05/24 02:51:28;;;;;;;9.93;2.93;;;18.30;83.10;;;18.64;55.23;94504.41;5044258;28;20944;-57
2022/05/24 02:53:55;;;;;;;4.43;2.33;;;18.30;82.60;;;18.62;55.99;94506.47;5045631;28;20528;-55
2022/05/24 02:56:23;;;;;;;22.33;3.97;;;18.30;82.90;;;18.57;55.86;94513.41;5048373;28;20456;-56
2022/05/24 02:58:50;;;;;;;5.87;2.63;;;18.20;82.60;;;18.47;56.27;94511.13;5052392;28;20490;-54
2022/05/24 03:01:19;;;;;;;5.47;3.17;;;18.10;82.90;;;18.40;56.59;94523.56;5042881;28;20548;-56
2022/05/24 03:03:48;;;;;;;5.77;3.20;;;18.10;83.30;;;18.34;56.67;94519.03;5045450;28;20463;-58
2022/05/24 03:06:17;;;;;;;11.77;2.73;;;18.00;84.00;;;18.30;56.40;94510.63;5044361;28;20532;-57
2022/05/24 03:14:14;;;;;;;7.13;2.97;;;17.90;83.90;;;18.23;56.67;94509.75;5052290;28;20832;-54
2022/05/24 03:14:16;;;;;;;6.70;2.80;;;17.90;83.90;;;18.21;56.46;94520.59;5047725;28;20581;-57
2022/05/24 03:16:46;;;;;;;8.23;3.93;;;17.90;83.90;;;18.18;56.73;94518.31;5038550;28;20463;-56
2022/05/24 03:19:14;;;;;;;3.57;3.10;;;17.90;84.10;;;18.17;56.53;94521.16;5050881;28;20556;-55
2022/05/24 03:21:43;;;;;;;10.17;3.50;;;17.80;84.40;;;18.15;56.50;94518.72;5053462;28;20463;-58
2022/05/24 03:24:10;;;;;;;3.67;3.10;;;17.80;84.70;;;18.15;56.60;94512.56;5050928;28;20880;-56
2022/05/24 03:26:38;;;;;;;3.33;2.63;;;17.80;84.80;;;18.14;57.20;94506.44;5044564;28;20456;-55
2022/05/24 03:29:05;;;;;;;5.97;3.20;;;17.80;85.00;;;18.15;57.17;94505.41;5043861;28;21047;-56
2022/05/24 03:31:35;;;;;;;7.43;3.53;;;17.80;85.40;;;18.15;57.14;94502.72;5047095;28;20469;-57
2022/05/24 03:34:02;;;;;;;9.40;3.27;;;17.80;85.40;;;18.15;57.12;94510.72;5054060;28;20491;-55
2022/05/24 03:36:29;;;;;;;8.17;3.00;;;17.80;86.00;;;18.15;56.96;94518.72;5054387;28;20458;-56
2022/05/24 03:38:58;;;;;;;3.17;2.87;;;17.80;85.70;;;18.17;57.43;94505.19;5047972;28;20455;-55
2022/05/24 03:41:25;;;;;;;4.67;3.40;;;17.80;85.80;;;18.20;57.29;94510.97;5041398;28;20456;-55
2022/05/24 03:43:52;;;;;;;6.10;3.20;;;17.90;85.70;;;18.22;57.52;94511.59;5044761;28;20512;-54
2022/05/24 03:46:20;;;;;;;7.90;3.47;;;17.90;85.90;;;18.24;57.10;94514.88;5054110;28;20455;-56
2022/05/24 03:48:47;;;;;;;10.40;3.60;;;17.90;86.00;;;18.28;57.15;94512.66;5050717;28;20508;-54
2022/05/24 03:51:14;;;;;;;7.10;3.20;;;17.90;86.20;;;18.33;57.18;94515.53;5048776;28;20487;-57
2022/05/24 03:53:41;;;;;;;5.20;3.70;;;18.00;86.50;;;18.39;57.75;94508.63;5043622;28;20549;-55
2022/05/24 03:56:11;;;;;;;6.33;2.90;;;18.00;86.80;;;18.44;57.09;94522.16;5047126;28;20559;-56
2022/05/24 03:58:38;;;;;;;8.40;3.17;;;18.00;86.00;;;18.45;56.76;94521.97;5053922;28;20469;-54
2022/05/24 04:01:06;;;;;;;6.80;2.83;;;18.10;85.70;;;18.48;57.23;94527.91;5052673;28;20480;-55
2022/05/24 04:03:35;;;;;;;4.27;3.60;;;18.10;85.70;;;18.50;56.87;94532.03;5050340;28;20460;-56
2022/05/24 04:06:02;;;;;;;5.23;3.37;;;18.10;85.80;;;18.54;57.52;94538.59;5038695;28;20469;-57
2022/05/24 04:08:30;;;;;;;4.70;3.20;;;18.20;86.10;;;18.57;56.90;94540.03;5036753;28;20980;-56
2022/05/24 04:11:02;;;;;;;5.83;2.77;;;18.20;85.80;;;18.59;56.63;94541.50;5052774;28;20483;-55
2022/05/24 04:13:31;;;;;;;3.90;2.83;;;18.20;85.60;;;18.61;56.47;94542.09;5044760;28;20456;-56
2022/05/24 04:15:58;;;;;;;8.13;2.87;;;18.30;85.00;;;18.60;56.84;94537.78;5045100;28;20867;-55
2022/05/24 04:18:26;;;;;;;9.40;3.30;;;18.30;85.00;;;18.58;56.89;94534.50;5044388;28;20463;-58
2022/05/24 04:20:53;;;;;;;3.30;2.60;;;18.20;84.60;;;18.56;56.43;94536.56;5046453;28;20545;-56
2022/05/24 04:23:21;;;;;;;7.07;2.83;;;18.20;84.60;;;18.52;57.14;94540.63;5056277;28;20467;-56
2022/05/24 04:25:48;;;;;;;11.03;3.53;;;18.20;84.90;;;18.48;56.67;94533.22;5053574;28;20931;-55
2022/05/24 04:28:18;;;;;;;6.47;3.17;;;18.20;85.30;;;18.46;57.11;94536.09;5051076;28;20458;-55
2022/05/24 04:30:47;;;;;;;8.83;3.23;;;18.10;85.20;;;18.46;56.67;94531.56;5044979;28;20476;-58
2022/05/24 04:33:15;;;;;;;10.80;4.10;;;18.10;85.30;;;18.48;57.36;94539.38;5042186;28;20463;-55
2022/05/24 04:35:42;;;;;;;7.43;4.30;;;18.10;85.60;;;18.49;57.50;94541.03;5052792;28;20557;-55
2022/05/24 04:38:09;;;;;;;7.23;3.50;;;18.10;85.90;;;18.50;56.80;94526.69;5052877;28;20463;-56
2022/05/24 04:43:22;;;;;;;10.20;3.93;;;18.20;85.80;;;18.58;57.25;94537.19;5047421;28;20450;-56
2022/05/24 04:45:53;;;;;;;9.13;3.40;;;18.20;85.90;;;18.64;57.43;94539.06;5043014;28;20487;-56
2022/05/24 04:48:20;;;;;;;12.73;4.67;;;18.30;86.10;;;18.71;57.39;94543.59;5047698;28;20452;-55
2022/05/24 04:50:52;;;;;;;3.67;3.30;;;18.30;86.20;;;18.80;56.67;94551.19;5053492;28;20569;-58
2022/05/24 04:53:19;;;;;;;4.70;3.87;;;18.40;86.10;;;18.89;56.57;94551.09;5041741;28;20967;-55
2022/05/24 04:55:47;;;;;;;8.43;4.30;;;18.50;86.00;;;18.96;56.62;94552.75;5045828;28;22034;-55
2022/05/24 04:58:14;;;;;;;4.43;3.37;;;18.60;85.90;;;19.05;57.17;94556.03;5042232;28;20463;-56
2022/05/24 05:00:42;;;;;;;10.87;3.93;;;18.70;85.90;;;19.14;57.04;94554.03;5044052;28;21046;-56
2022/05/24 05:03:11;;;;;;;11.63;4.27;;;18.70;85.50;;;19.21;56.42;94554.88;5048663;28;20467;-55
2022/05/24 05:05:39;;;;;;;8.30;4.40;;;18.80;85.00;;;19.28;56.47;94558.38;5044976;28;21044;-56
2022/05/24 05:08:07;;;;;;;6.90;3.93;;;18.90;85.00;;;19.36;55.75;94565.34;5052596;28;20996;-55
2022/05/24 05:10:35;;;;;;;6.80;4.13;;;19.00;84.80;;;19.43;56.01;94568.88;5050195;28;20471;-55
2022/05/24 05:13:02;;;;;;;5.57;4.70;;;19.00;84.30;;;19.48;55.91;94568.28;5045612;28;20457;-56
2022/05/24 05:15:29;;;;;;;5.23;3.50;;;19.10;84.00;;;19.54;55.29;94570.13;5049231;28;20482;-57
2022/05/24 05:18:04;;;;;;;11.77;5.60;;;19.10;83.70;;;19.64;56.10;94570.56;5054026;28;20459;-58
2022/05/24 05:20:32;;;;;;;17.00;5.90;;;19.20;84.10;;;19.75;55.61;94573.63;5051485;28;21121;-57
2022/05/24 05:22:59;;;;;;;6.20;4.10;;;19.30;83.50;;;19.81;55.52;94575.50;5049880;28;20466;-57
2022/05/24 05:25:27;;;;;;;5.20;4.70;;;19.40;83.30;;;19.88;55.32;94569.16;5051617;28;20856;-58
2022/05/24 05:27:54;;;;;;;12.43;4.90;;;19.40;82.60;;;19.93;54.81;94563.19;5049697;28;20481;-56
2022/05/24 05:33:06;;;;;;;9.80;5.17;;;19.50;81.80;;;20.00;54.71;94584.56;5052076;28;20426;-54
2022/05/24 05:35:35;;;;;;;5.80;4.13;;;19.60;81.70;;;20.06;54.92;94583.72;5046678;28;20503;-55
2022/05/24 05:38:02;;;;;;;6.70;4.40;;;19.60;81.50;;;20.15;54.68;94587.03;5049493;28;20443;-57
2022/05/24 05:40:29;;;;;;;5.90;4.77;;;19.70;81.30;;;20.27;54.21;94585.38;5060562;28;21038;-57
2022/05/24 05:42:57;;;;;;;12.63;4.17;;;19.80;81.00;;;20.37;53.67;94583.13;5055855;28;20487;-55
2022/05/24 05:45:24;;;;;;;9.80;3.93;;;19.90;80.60;;;20.43;53.88;94584.13;5050572;28;20483;-59
2022/05/24 05:47:52;;;;;;;10.30;4.20;;;20.00;80.30;;;20.50;53.67;94589.47;5051574;28;20451;-57
2022/05/24 05:50:20;;;;;;;9.40;4.57;;;20.10;79.90;;;20.58;53.67;94591.91;5046031;28;20512;-57
2022/05/24 05:52:49;;;;;;;9.93;5.40;;;20.10;79.90;;;20.69;53.66;94593.97;5050952;28;20551;-58
2022/05/24 05:55:19;;;;;;;18.60;5.30;;;20.30;80.10;;;20.86;53.47;94597.00;5054475;28;20519;-55
2022/05/24 05:57:46;;;;;;;8.63;4.50;;;20.40;80.20;;;21.04;53.10;94608.88;5048730;28;20455;-55
2022/05/24 06:00:15;;;;;;;6.70;4.30;;;20.50;79.50;;;21.22;53.03;94603.66;5050603;28;20475;-55
2022/05/24 06:02:43;;;;;;;14.63;3.80;;;20.70;79.10;;;21.40;52.50;94610.97;5044691;28;20478;-59
2022/05/24 06:05:11;;;;;;;5.33;4.37;;;20.90;78.60;;;21.59;52.23;94608.44;5056783;28;20478;-59
2022/05/24 06:07:38;;;;;;;9.60;4.30;;;21.00;78.00;;;21.77;51.53;94607.72;5060157;28;20458;-59
2022/05/24 06:10:09;;;;;;;9.60;4.60;;;21.20;76.90;;;21.92;51.52;94610.94;5052266;28;20470;-55
2022/05/24 06:12:36;;;;;;;5.33;4.17;;;21.40;76.50;;;22.07;51.13;94615.13;5054754;28;20436;-55
2022/05/24 06:15:04;;;;;;;8.83;3.97;;;21.50;76.20;;;22.20;50.66;94615.03;5049957;28;20491;-56
2022/05/24 06:17:32;;;;;;;16.57;4.10;;;21.70;75.10;;;22.30;50.48;94615.38;5054567;28;20516;-55
2022/05/24 06:20:01;;;;;;;6.80;4.53;;;21.80;74.10;;;22.39;49.83;94607.91;5059988;28;20490;-55
2022/05/24 06:22:28;;;;;;;12.10;4.87;;;21.90;73.40;;;22.41;49.98;94605.00;5056988;28;20990;-56
2022/05/24 06:24:57;;;;;;;6.93;4.47;;;21.90;73.00;;;22.49;49.68;94600.16;5053741;28;20478;-58
2022/05/24 06:27:26;;;;;;;9.27;4.50;;;22.00;72.90;;;22.63;49.52;94605.41;5044876;28;20456;-66
2022/05/24 06:29:53;;;;;;;7.70;4.00;;;22.10;72.60;;;22.71;49.38;94597.06;5051979;28;20521;-58
2022/05/24 06:32:21;;;;;;;11.00;4.93;;;22.20;71.80;;;22.76;49.19;94597.25;5057043;28;21025;-58
2022/05/24 06:34:49;;;;;;;9.83;4.97;;;22.20;71.80;;;22.85;49.14;94590.53;5057992;28;20952;-59
2022/05/24 06:37:16;;;;;;;11.50;5.00;;;22.30;72.00;;;23.00;49.19;94592.03;5049180;28;21072;-56
2022/05/24 06:39:43;;;;;;;16.10;4.80;;;22.50;72.00;;;23.13;48.87;94597.28;5050960;28;20471;-55
2022/05/24 06:42:11;;;;;;;13.27;4.40;;;22.60;70.60;;;23.26;48.47;94590.91;5048288;28;20982;-56
2022/05/24 06:44:39;;;;;;;9.20;4.43;;;22.70;70.10;;;23.37;48.16;94600.88;5056992;28;20482;-56
2022/05/24 06:47:08;;;;;;;19.13;4.50;;;22.80;70.20;;;23.45;48.35;94597.06;5055824;28;20451;-58
2022/05/24 06:49:36;;;;;;;10.63;5.73;;;22.90;69.40;;;23.40;48.15;94594.25;5051266;28;20996;-58
2022/05/24 06:52:04;;;;;;;7.27;5.07;;;22.90;68.30;;;23.37;48.21;94586.66;5048749;28;20458;-58
2022/05/24 06:54:32;;;;;;;11.30;5.00;;;22.90;68.40;;;23.44;47.57;94580.16;5044162;28;20850;-58
2022/05/24 06:56:59;;;;;;;12.50;5.30;;;22.90;68.40;;;23.50;47.81;94575.75;5045558;28;20455;-57
2022/05/24 07:02:28;;;;;;;8.73;4.50;;;23.00;67.70;;;23.52;46.93;94572.84;5045973;28;20475;-59
2022/05/24 07:05:00;;;;;;;14.27;4.63;;;23.00;67.10;;;23.60;47.38;94569.81;5044151;28;20479;-56
2022/05/24 07:07:27;;;;;;;7.77;4.90;;;23.10;67.70;;;23.78;47.35;94571.59;5036611;28;20463;-54
2022/05/24 07:09:54;;;;;;;13.77;4.67;;;23.20;67.20;;;23.98;46.96;94577.53;5053295;28;20464;-57
2022/05/24 07:12:22;;;;;;;15.10;8.20;;;23.40;67.50;;;24.22;47.45;94582.13;5056384;28;20448;-56
2022/05/24 07:14:49;;;;;;;27.67;7.50;;;23.60;67.50;;;24.46;47.23;94577.56;5053451;28;20498;-55
2022/05/24 07:17:18;;;;;;;20.00;7.80;;;23.80;67.50;;;24.73;46.87;94583.34;5048905;28;20447;-58
2022/05/24 07:19:46;;;;;;;24.80;6.77;;;24.10;66.80;;;25.03;45.83;94585.84;5046511;28;20468;-56
2022/05/24 07:22:14;;;;;;;9.50;5.53;;;24.40;66.00;;;25.31;45.48;94581.59;5048818;28;20447;-56
2022/05/24 07:24:41;;;;;;;10.03;5.20;;;24.60;65.10;;;25.58;45.47;94578.38;5051210;28;20485;-57
2022/05/24 07:27:11;;;;;;;13.63;5.50;;;24.90;64.70;;;25.83;45.44;94580.69;5053480;28;20452;-57
2022/05/24 07:29:38;;;;;;;8.20;5.03;;;25.10;63.60;;;26.08;44.69;94582.22;5045428;28;20521;-56
2022/05/24 07:32:07;;;;;;;7.47;4.70;;;25.40;62.70;;;26.32;44.56;94577.50;5042945;28;20490;-56
2022/05/24 07:34:36;;;;;;;7.87;5.17;;;25.60;61.80;;;26.53;44.27;94575.13;5056143;28;20470;-56
2022/05/24 07:37:05;;;;;;;7.73;4.30;;;25.80;60.90;;;26.58;43.60;94576.00;5057268;28;20467;-56
2022/05/24 07:39:32;;;;;;;8.80;5.43;;;26.00;59.30;;;26.55;43.20;94581.06;5051560;28;20541;-55
2022/05/24 07:47:29;;;;;;;10.83;4.33;;;25.90;59.10;;;26.57;43.58;94578.94;5054840;28;20468;-58
2022/05/24 07:49:58;;;;;;;9.83;5.40;;;25.90;59.20;;;26.76;43.40;94574.94;5057680;28;20466;-57
2022/05/24 07:52:25;;;;;;;34.50;6.13;;;26.10;59.30;;;26.95;43.58;94574.66;5054351;28;20451;-57
2022/05/24 07:54:52;;;;;;;7.60;4.50;;;26.30;59.10;;;27.15;42.79;94568.69;5051174;28;20592;-60
2022/05/24 07:57:20;;;;;;;12.70;4.40;;;26.50;58.30;;;27.33;42.32;94548.69;5041839;28;20542;-57
2022/05/24 07:59:48;;;;;;;20.37;5.03;;;26.70;57.90;;;27.51;42.36;94561.88;5050738;28;20478;-57
2022/05/24 08:02:16;;;;;;;9.67;4.17;;;26.90;57.50;;;27.64;41.96;94567.94;5053576;28;20531;-59
2022/05/24 08:04:44;;;;;;;17.93;5.67;;;27.00;56.70;;;27.71;41.79;94566.66;5039274;28;20494;-58
2022/05/24 08:07:13;;;;;;;10.10;4.83;;;27.10;56.40;;;27.82;41.21;94562.16;5048296;28;21006;-59
2022/05/24 08:09:40;;;;;;;9.63;4.23;;;27.20;56.30;;;28.00;41.32;94563.72;5042784;28;20470;-57
2022/05/24 08:12:08;;;;;;;19.53;4.17;;;27.30;55.90;;;28.17;41.44;94569.00;5040591;28;20561;-56
2022/05/24 08:14:35;;;;;;;5.53;4.20;;;27.60;55.90;;;28.36;40.73;94568.59;5057652;28;20574;-55
2022/05/24 08:17:03;;;;;;;16.80;3.80;;;27.70;55.40;;;28.38;40.56;94570.00;5041530;28;20459;-56
2022/05/24 08:19:30;;;;;;;8.33;4.90;;;27.80;54.40;;;28.40;40.62;94569.72;5045412;28;20533;-55
2022/05/24 08:21:58;;;;;;;16.87;4.10;;;27.80;54.30;;;28.51;40.65;94570.63;5048603;28;20812;-58
2022/05/24 08:24:27;;;;;;;9.43;4.83;;;27.90;54.30;;;28.66;40.00;94565.34;5044417;28;20866;-56
2022/05/24 08:26:54;;;;;;;12.37;4.63;;;28.00;54.00;;;28.83;40.47;94565.19;5045331;28;20467;-56
2022/05/24 08:29:21;;;;;;;12.43;3.97;;;28.20;53.70;;;29.01;40.09;94563.91;5045160;28;20600;-56
2022/05/24 08:31:49;;;;;;;14.80;4.30;;;28.40;53.60;;;29.20;40.10;94550.75;5045122;28;20546;-57
2022/05/24 08:34:16;;;;;;;7.73;4.67;;;28.50;53.30;;;29.40;39.50;94560.03;5043300;28;20475;-57
2022/05/24 08:36:43;;;;;;;13.27;4.30;;;28.70;53.00;;;29.54;38.98;94549.50;5037655;28;20495;-58
2022/05/24 08:39:10;;;;;;;6.80;3.73;;;28.90;52.80;;;29.68;39.28;94554.16;5046278;28;20464;-57
2022/05/24 08:41:51;;;;;;;15.83;4.93;;;29.10;52.10;;;29.78;37.82;94564.19;5057081;28;20887;-57
2022/05/24 08:49:56;;;;;;;8.70;5.33;;;29.30;51.30;;;30.00;37.67;94558.56;5051812;28;20540;-55
2022/05/24 08:52:26;;;;;;;20.93;6.53;;;29.40;50.60;;;29.93;38.37;94560.75;5056201;28;20454;-58
2022/05/24 08:54:53;;;;;;;9.50;4.53;;;29.40;50.30;;;29.82;37.95;94559.06;5050237;28;20873;-55
2022/05/24 08:57:28;;;;;;;5.17;4.00;;;29.30;50.40;;;29.80;38.62;94561.25;5054196;28;20717;-60
2022/05/24 08:59:59;;;;;;;9.87;4.37;;;29.30;50.60;;;29.87;38.02;94561.81;5050212;28;20462;-58
2022/05/24 09:02:27;;;;;;;6.90;4.40;;;29.30;50.60;;;29.91;38.46;94571.03;5049303;28;20447;-59
2022/05/24 09:04:54;;;;;;;5.97;4.60;;;29.30;50.40;;;29.88;37.68;94568.03;5063218;28;20469;-59
2022/05/24 09:07:25;;;;;;;13.20;6.07;;;29.30;50.30;;;29.84;38.50;94554.22;5059762;28;20461;-60
2022/05/24 09:09:56;;;;;;;8.53;4.50;;;29.30;50.40;;;29.91;38.63;94557.47;5052469;28;20474;-57
2022/05/24 09:12:34;;;;;;;11.03;4.50;;;29.30;50.40;;;29.97;37.83;94550.97;5051968;28;20813;-55
2022/05/24 09:15:12;;;;;;;21.60;5.13;;;29.40;50.00;;;29.90;37.99;94544.19;5049687;28;21127;-57
2022/05/24 09:17:51;;;;;;;12.23;5.67;;;29.40;49.90;;;29.88;37.65;94539.03;5047651;28;20958;-55
2022/05/24 09:20:32;;;;;;;25.70;6.30;;;29.30;50.30;;;29.96;37.67;94535.81;5054175;28;21103;-57
2022/05/24 09:23:03;;;;;;;15.33;4.87;;;29.40;50.40;;;30.07;37.49;94539.34;5041027;28;20462;-57
2022/05/24 09:25:30;;;;;;;10.43;5.90;;;29.50;50.10;;;30.10;37.91;94541.50;5048839;28;20487;-59
2022/05/24 09:27:59;;;;;;;21.00;6.60;;;29.50;50.50;;;30.19;38.07;94533.63;5039352;28;20452;-56
2022/05/24 09:30:36;;;;;;;12.33;6.10;;;29.60;50.50;;;30.26;38.70;94527.94;5048925;28;20592;-54
2022/05/24 09:33:21;;;;;;;17.80;6.33;;;29.60;50.60;;;30.31;37.67;94534.16;5051764;28;20277;-56
2022/05/24 09:35:50;;;;;;;11.00;5.00;;;29.70;50.00;;;30.34;37.28;94547.19;5049049;28;20233;-60
2022/05/24 09:38:22;;;;;;;14.13;5.60;;;29.80;49.80;;;30.39;37.59;94543.69;5049418;28;20219;-55
2022/05/24 09:40:52;;;;;;;8.07;5.43;;;29.80;49.20;;;30.41;36.84;94543.41;5048945;28;20723;-59
2022/05/24 09:43:33;;;;;;;10.83;5.43;;;29.80;49.30;;;30.29;36.89;94540.97;5053212;28;20667;-59
2022/05/24 09:46:03;;;;;;;7.80;5.90;;;29.80;49.20;;;30.26;38.00;94536.88;5056082;28;20235;-58
2022/05/24 09:48:33;;;;;;;9.87;5.20;;;29.80;49.50;;;30.38;37.85;94533.88;5046615;28;20617;-56
2022/05/24 09:51:02;;;;;;;9.70;6.73;;;29.80;49.40;;;30.50;37.63;94536.34;5042493;28;20480;-59
2022/05/24 09:53:31;;;;;;;15.53;5.90;;;29.90;49.60;;;30.58;37.74;94541.22;5045526;28;20654;-55
2022/05/24 09:56:01;;;;;;;10.13;6.03;;;30.00;49.50;;;30.72;37.37;94534.13;5059839;28;20572;-59
2022/05/24 09:58:33;;;;;;;14.60;6.13;;;30.10;49.30;;;30.85;37.49;94521.88;5046456;28;20201;-58
2022/05/24 10:01:03;;;;;;;13.17;6.10;;;30.20;49.30;;;31.04;36.54;94519.38;5045384;28;20740;-59
2022/05/24 10:03:33;;;;;;;250.00;59.60;;;30.40;49.20;;;31.27;36.70;94530.72;5047241;28;20196;-58
2022/05/24 10:06:17;;;;;;;22.60;8.20;;;30.60;49.30;;;31.49;36.61;94529.53;5047352;28;20228;-57
2022/05/24 10:08:46;;;;;;;21.37;6.83;;;30.80;48.90;;;31.63;36.13;94527.84;5057601;28;20232;-58
2022/05/24 10:11:27;;;;;;;15.40;6.40;;;31.00;48.60;;;31.74;35.52;94526.69;5055549;28;20315;-58
2022/05/24 10:14:28;;;;;;;9.70;7.30;;;31.10;47.50;;;31.80;36.08;94524.75;5050901;28;20326;-56
2022/05/24 10:17:02;;;;;;;12.27;6.47;;;31.20;47.80;;;31.85;35.96;94526.63;5039404;28;20232;-56
2022/05/24 10:19:48;;;;;;;10.03;5.73;;;31.20;47.80;;;31.91;35.08;94520.84;5042599;28;20217;-54
2022/05/24 10:22:27;;;;;;;9.90;5.70;;;31.30;46.70;;;31.97;36.04;94524.34;5055350;28;20201;-55
2022/05/24 10:25:06;;;;;;;12.50;6.27;;;31.40;47.40;;;32.00;35.85;94513.72;5052774;28;20235;-57
2022/05/24 10:27:39;;;;;;;14.83;6.13;;;31.40;47.30;;;32.04;35.62;94511.25;5046754;28;20284;-59
2022/05/24 10:30:10;;;;;;;33.92;10.90;;;31.40;46.80;;;32.11;36.21;94514.47;5044495;28;20228;-60
2022/05/24 10:38:52;;;;;;;17.37;7.57;;;31.60;47.90;;;32.32;35.97;94503.44;5053197;28;20218;-58
2022/05/24 10:41:25;;;;;;;12.40;5.83;;;31.70;47.40;;;32.25;35.31;94492.84;5043091;28;20300;-59
2022/05/24 10:44:00;;;;;;;13.50;5.60;;;31.70;46.50;;;32.02;35.53;94496.31;5041887;28;20268;-59
2022/05/24 10:46:35;;;;;;;11.90;6.07;;;31.50;46.50;;;31.88;35.56;94493.41;5055066;28;20206;-55
2022/05/24 10:49:09;;;;;;;6.67;5.70;;;31.30;47.00;;;31.69;35.71;94485.94;5049040;28;20374;-57
2022/05/24 10:51:40;;;;;;;9.87;6.87;;;31.20;46.90;;;31.57;36.41;94493.63;5050291;28;20189;-57
2022/05/24 10:54:12;;;;;;;15.83;6.20;;;31.00;47.30;;;31.57;36.91;94493.63;5043435;28;20556;-55
2022/05/24 10:56:44;;;;;;;15.90;6.90;;;31.00;47.80;;;31.60;36.46;94496.59;5043399;28;20483;-58
2022/05/24 10:59:21;;;;;;;9.70;7.10;;;31.00;48.00;;;31.73;37.09;94494.31;5060424;28;20204;-56